KLCI/LCI METAR and TAF weather

Enter ICAO airport designator
Station Type Date Time Source
KLCI METAR 2021/05/14 21:56 UTC NOAA

KLCI 142156Z AUTO 29009KT 10SM CLR 23/M01 A3008 RMK AO2 SLP186 T02281006


Station Type Date Time Source
KLCI Decoded METAR 2021/05/14 21:56 UTC NOAA

Laconia, Laconia Municipal Airport, NH, United States (KLCI) 43-34N 071-25W
May 14, 2021 - 05:56 PM EDT / 2021.05.14 2156 UTC
Wind: from the WNW (290 degrees) at 10 MPH (9 KT):0
Visibility: 10 mile(s):0
Sky conditions: clear
Temperature: 73.0 F (22.8 C)
Dew Point: 30.9 F (-0.6 C)
Relative Humidity: 21%
Pressure (altimeter): 30.08 in. Hg (1018 hPa)
ob: KLCI 142156Z AUTO 29009KT 10SM CLR 23/M01 A3008 RMK AO2 SLP186 T02281006
cycle: 22

Station Type Date Time Source
KLCI TAF UTC NOAA

Error!

Example: see airport list